Time;durP1;ratioP1;P1;durP2;ratioP2;P2;SDS_P1;SDS_P2;PMS_P1;PMS_P2;Temp;Humidity;BMP_temperature;BMP_pressure;BME280_temperature;BME280_humidity;BME280_pressure;Samples;Min_cycle;Max_cycle;Signal;HPM_P1;HPM_P2
2023/10/23 00:01:51;;;;;;;2.40;1.80;;;12.50;99.90;;;;;;4925706;29;20649;-79
2023/10/23 00:04:18;;;;;;;2.20;1.73;;;12.50;99.90;;;;;;4940621;29;20523;-72
2023/10/23 00:06:46;;;;;;;3.23;2.43;;;12.50;99.90;;;;;;4913244;29;20274;-73
2023/10/23 00:09:14;;;;;;;4.07;2.60;;;12.40;99.90;;;;;;4932277;29;20192;-72
2023/10/23 00:11:41;;;;;;;2.00;1.63;;;12.40;99.90;;;;;;4931346;29;20252;-69
2023/10/23 00:14:08;;;;;;;4.67;2.10;;;12.40;99.90;;;;;;4927787;29;20207;-68
2023/10/23 00:16:35;;;;;;;2.93;2.00;;;12.40;99.90;;;;;;4933480;29;20219;-74
2023/10/23 00:19:02;;;;;;;3.37;1.83;;;12.40;99.90;;;;;;4932133;29;20218;-69
2023/10/23 00:21:29;;;;;;;3.13;2.10;;;12.40;99.90;;;;;;4913357;29;20212;-69
2023/10/23 00:23:56;;;;;;;3.50;1.87;;;12.40;99.90;;;;;;4931829;29;20219;-68
2023/10/23 00:26:24;;;;;;;1.97;1.77;;;12.40;99.90;;;;;;4932319;29;20188;-68
2023/10/23 00:28:53;;;;;;;2.93;1.90;;;12.40;99.90;;;;;;4932871;29;20524;-71
2023/10/23 00:31:20;;;;;;;2.63;1.93;;;12.40;99.90;;;;;;4906447;29;20208;-73
2023/10/23 00:33:47;;;;;;;4.33;2.20;;;12.50;99.90;;;;;;4926436;29;20199;-73
2023/10/23 00:36:14;;;;;;;2.00;1.83;;;12.50;99.90;;;;;;4928816;28;20203;-73
2023/10/23 00:38:41;;;;;;;3.67;2.10;;;12.60;99.90;;;;;;4914405;29;20221;-72
2023/10/23 00:41:08;;;;;;;3.10;2.07;;;12.60;99.90;;;;;;4932293;29;21691;-80
2023/10/23 00:43:36;;;;;;;2.20;2.00;;;12.60;99.90;;;;;;4914999;29;20202;-71
2023/10/23 00:46:10;;;;;;;2.07;1.87;;;12.50;99.90;;;;;;4912282;29;20296;-72
2023/10/23 00:48:38;;;;;;;2.77;1.90;;;12.60;99.90;;;;;;4912318;29;20203;-71
2023/10/23 00:51:07;;;;;;;3.30;2.00;;;12.60;99.90;;;;;;4912218;29;20213;-72
2023/10/23 00:53:38;;;;;;;2.87;2.07;;;12.60;99.90;;;;;;4911319;29;20673;-72
2023/10/23 00:56:07;;;;;;;5.03;2.27;;;12.60;99.90;;;;;;4929570;29;20648;-76
2023/10/23 00:58:39;;;;;;;3.27;2.13;;;12.60;99.90;;;;;;4914287;29;20207;-71
2023/10/23 01:01:09;;;;;;;3.17;2.20;;;12.60;99.90;;;;;;4933190;29;20211;-72
2023/10/23 01:03:39;;;;;;;6.67;2.20;;;12.60;99.90;;;;;;4927112;29;20734;-72
2023/10/23 01:06:07;;;;;;;3.83;1.80;;;12.50;99.90;;;;;;4914552;29;20207;-73
2023/10/23 01:08:34;;;;;;;2.30;1.83;;;12.50;99.90;;;;;;4928755;29;20683;-72
2023/10/23 01:11:01;;;;;;;5.57;2.20;;;12.40;99.90;;;;;;4912899;29;20233;-71
2023/10/23 01:13:28;;;;;;;3.13;1.73;;;12.40;99.90;;;;;;4928429;29;20217;-72
2023/10/23 01:15:55;;;;;;;3.13;1.90;;;12.40;99.90;;;;;;4931765;29;20227;-71
2023/10/23 01:18:22;;;;;;;2.23;2.03;;;12.40;99.90;;;;;;4934428;29;20196;-75
2023/10/23 01:20:49;;;;;;;2.00;1.80;;;12.30;99.90;;;;;;4914461;29;20200;-75
2023/10/23 01:23:16;;;;;;;2.10;1.87;;;12.30;99.90;;;;;;4933839;29;20204;-71
2023/10/23 01:25:43;;;;;;;5.00;1.90;;;12.20;99.90;;;;;;4925984;29;20271;-74
2023/10/23 01:28:10;;;;;;;1.97;1.70;;;12.20;99.90;;;;;;4930380;29;20454;-75
2023/10/23 01:30:40;;;;;;;1.97;1.67;;;12.20;99.90;;;;;;4918402;29;20248;-76
2023/10/23 01:33:07;;;;;;;2.17;1.90;;;12.00;99.90;;;;;;4930324;29;20213;-76
2023/10/23 01:35:34;;;;;;;3.80;2.03;;;12.00;99.90;;;;;;4930106;29;20625;-76
2023/10/23 01:38:01;;;;;;;2.93;1.90;;;11.90;99.90;;;;;;4919846;29;20255;-72
2023/10/23 01:40:28;;;;;;;3.17;1.90;;;11.90;99.90;;;;;;4918483;29;20208;-71
2023/10/23 01:42:55;;;;;;;5.33;2.43;;;12.00;99.90;;;;;;4931564;29;20263;-71
2023/10/23 01:45:22;;;;;;;3.43;2.10;;;11.90;99.90;;;;;;4929941;29;20724;-71
2023/10/23 01:47:49;;;;;;;2.77;2.17;;;12.00;99.90;;;;;;4934806;29;20282;-76
2023/10/23 01:50:16;;;;;;;4.33;2.37;;;12.00;99.90;;;;;;4944154;29;20212;-76
2023/10/23 01:52:44;;;;;;;5.57;2.40;;;12.10;99.90;;;;;;4918867;29;20402;-77
2023/10/23 01:55:12;;;;;;;3.47;2.23;;;12.10;99.90;;;;;;4935445;29;20196;-77
2023/10/23 01:57:38;;;;;;;2.33;2.13;;;12.10;99.90;;;;;;4935803;29;20196;-73
2023/10/23 02:00:06;;;;;;;2.53;1.80;;;12.10;99.90;;;;;;4917199;29;20199;-71
2023/10/23 02:06:21;;;;;;;5.63;2.30;;;12.10;99.90;;;;;;4918339;29;20305;-73
2023/10/23 02:08:48;;;;;;;5.10;2.77;;;12.20;99.90;;;;;;4931735;29;20839;-72
2023/10/23 02:11:15;;;;;;;8.00;2.60;;;12.20;99.90;;;;;;4925593;29;20195;-73
2023/10/23 02:13:42;;;;;;;4.33;2.30;;;12.30;99.90;;;;;;4916786;29;20256;-71
2023/10/23 02:16:09;;;;;;;7.03;2.83;;;12.30;99.90;;;;;;4923634;29;20671;-71
2023/10/23 02:18:36;;;;;;;5.67;2.60;;;12.30;99.90;;;;;;4917138;29;20212;-71
2023/10/23 02:21:03;;;;;;;5.93;2.77;;;12.30;99.90;;;;;;4915353;29;20243;-78
2023/10/23 02:23:34;;;;;;;6.10;2.97;;;12.30;99.90;;;;;;4916940;29;20319;-72
2023/10/23 02:26:21;;;;;;;5.00;2.87;;;12.40;99.90;;;;;;4917838;29;20254;-74
2023/10/23 02:28:48;;;;;;;6.33;2.70;;;12.30;99.90;;;;;;4917695;29;20196;-73
2023/10/23 02:31:15;;;;;;;3.63;3.10;;;12.40;99.90;;;;;;4940318;29;20195;-70
2023/10/23 02:33:42;;;;;;;5.13;3.43;;;12.30;99.90;;;;;;4933000;29;20274;-69
2023/10/23 02:36:09;;;;;;;4.23;2.93;;;12.30;99.90;;;;;;4932693;29;20653;-69
2023/10/23 02:38:36;;;;;;;3.10;2.53;;;12.40;99.90;;;;;;4930661;29;20195;-69
2023/10/23 02:41:03;;;;;;;3.00;2.67;;;12.40;99.90;;;;;;4933612;29;20214;-70
2023/10/23 02:43:30;;;;;;;7.37;2.63;;;12.30;99.90;;;;;;4934772;29;20274;-70
2023/10/23 02:46:06;;;;;;;5.47;3.23;;;12.40;99.90;;;;;;4934147;29;20224;-70
2023/10/23 02:48:34;;;;;;;8.87;3.40;;;12.30;99.90;;;;;;4938950;29;20251;-70
2023/10/23 02:51:01;;;;;;;5.40;2.87;;;12.30;99.90;;;;;;4933655;29;20198;-69
2023/10/23 02:53:29;;;;;;;3.03;2.67;;;12.30;99.90;;;;;;4934638;29;20199;-70
2023/10/23 02:55:56;;;;;;;4.27;2.47;;;12.30;99.90;;;;;;4918206;29;20223;-69
2023/10/23 02:58:23;;;;;;;4.03;3.03;;;12.30;99.90;;;;;;4903715;29;20267;-73
2023/10/23 03:00:50;;;;;;;6.37;2.80;;;12.30;99.90;;;;;;4934721;29;20223;-72
2023/10/23 03:03:17;;;;;;;7.27;2.60;;;12.30;99.90;;;;;;4928385;29;20206;-76
2023/10/23 03:05:44;;;;;;;2.80;2.50;;;12.20;99.90;;;;;;4938529;29;20223;-73
2023/10/23 03:08:11;;;;;;;8.30;2.50;;;12.30;99.90;;;;;;4914007;29;20282;-72
2023/10/23 03:10:38;;;;;;;8.17;4.27;;;12.20;99.90;;;;;;4934092;29;20203;-72
2023/10/23 03:13:05;;;;;;;14.90;9.03;;;12.20;99.90;;;;;;4914490;29;20286;-72
2023/10/23 03:15:33;;;;;;;6.27;4.57;;;12.20;99.90;;;;;;4929971;29;20200;-72
2023/10/23 03:18:03;;;;;;;6.47;4.10;;;12.20;99.90;;;;;;4923447;29;20311;-72
2023/10/23 03:20:30;;;;;;;6.17;3.50;;;12.20;99.90;;;;;;4929296;29;20191;-72
2023/10/23 03:22:58;;;;;;;8.70;3.80;;;12.20;99.90;;;;;;4934779;29;20207;-72
2023/10/23 03:25:25;;;;;;;4.53;3.70;;;12.20;99.90;;;;;;4920900;29;20954;-71
2023/10/23 03:27:52;;;;;;;6.18;3.42;;;12.20;99.90;;;;;;4915023;29;20210;-72
2023/10/23 03:30:19;;;;;;;6.00;3.47;;;12.20;99.90;;;;;;4914654;29;20288;-71
2023/10/23 03:32:47;;;;;;;5.78;3.05;;;12.20;99.90;;;;;;4929614;29;20223;-72
2023/10/23 03:35:14;;;;;;;4.72;2.22;;;12.20;99.90;;;;;;4919809;29;20302;-72
2023/10/23 03:37:41;;;;;;;5.10;3.00;;;12.10;99.90;;;;;;4934943;29;20251;-71
2023/10/23 03:40:10;;;;;;;6.53;2.83;;;12.10;99.90;;;;;;4934119;29;20184;-72
2023/10/23 03:42:37;;;;;;;6.60;3.50;;;12.00;99.90;;;;;;4930317;29;20275;-72
2023/10/23 03:45:05;;;;;;;5.20;3.10;;;11.90;99.90;;;;;;4939390;29;20267;-71
2023/10/23 03:47:32;;;;;;;4.83;3.37;;;11.80;99.90;;;;;;4934519;29;20208;-72
2023/10/23 03:49:59;;;;;;;3.33;2.67;;;11.70;99.90;;;;;;4932639;29;20195;-72
2023/10/23 03:52:26;;;;;;;5.40;3.03;;;11.70;99.90;;;;;;4923421;29;20199;-72
2023/10/23 03:54:53;;;;;;;4.63;2.93;;;11.60;99.90;;;;;;4913879;29;20221;-71
2023/10/23 03:57:20;;;;;;;9.33;3.17;;;11.40;1.00;;;;;;4939874;29;20199;-72
2023/10/23 03:59:47;;;;;;;6.20;2.93;;;11.40;1.00;;;;;;4929456;29;20255;-73
2023/10/23 04:02:14;;;;;;;5.70;2.70;;;11.30;1.00;;;;;;4910831;29;20249;-73
2023/10/23 04:04:40;;;;;;;4.17;3.33;;;11.20;1.00;;;;;;4921224;29;20259;-72
2023/10/23 04:07:08;;;;;;;4.40;3.50;;;11.20;1.00;;;;;;4914808;29;20196;-72
2023/10/23 04:09:35;;;;;;;4.20;3.30;;;11.20;1.00;;;;;;4929242;29;20191;-72
2023/10/23 04:12:02;;;;;;;5.13;3.17;;;11.20;1.00;;;;;;4929232;29;20200;-73
2023/10/23 04:14:29;;;;;;;3.40;2.67;;;11.20;1.00;;;;;;4932554;29;20275;-76
2023/10/23 04:16:56;;;;;;;4.63;3.03;;;11.20;1.00;;;;;;4916485;29;20229;-73
2023/10/23 04:19:23;;;;;;;5.43;3.50;;;11.20;1.00;;;;;;4920374;29;20254;-73
2023/10/23 04:21:50;;;;;;;4.07;2.60;;;11.30;1.00;;;;;;4929449;29;20195;-72
2023/10/23 04:24:17;;;;;;;7.03;3.17;;;11.40;1.00;;;;;;4931385;29;20667;-74
2023/10/23 04:26:44;;;;;;;5.73;3.23;;;11.50;1.00;;;;;;4930648;29;20704;-73
2023/10/23 04:29:11;;;;;;;4.13;3.30;;;11.50;1.00;;;;;;4915247;29;20195;-72
2023/10/23 04:31:38;;;;;;;4.63;3.43;;;11.50;1.00;;;;;;4933067;29;20230;-73
2023/10/23 04:34:05;;;;;;;8.87;3.30;;;11.50;1.00;;;;;;4916554;29;20306;-71
2023/10/23 04:36:32;;;;;;;4.57;3.47;;;11.50;1.00;;;;;;4930427;29;20207;-72
2023/10/23 04:38:59;;;;;;;4.77;3.67;;;11.60;1.00;;;;;;4911571;29;20207;-70
2023/10/23 04:41:26;;;;;;;4.93;3.00;;;11.60;1.00;;;;;;4928206;29;20231;-71
2023/10/23 04:43:53;;;;;;;6.93;3.47;;;11.70;1.00;;;;;;4915267;29;20278;-71
2023/10/23 04:46:20;;;;;;;4.07;2.80;;;11.60;1.00;;;;;;4931068;29;20231;-71
2023/10/23 04:48:47;;;;;;;4.00;3.20;;;11.60;1.00;;;;;;4930701;29;20219;-71
2023/10/23 04:51:14;;;;;;;5.00;3.83;;;11.60;1.00;;;;;;4898142;29;20199;-71
2023/10/23 04:53:42;;;;;;;9.60;3.63;;;11.70;1.00;;;;;;4917168;29;20203;-72
2023/10/23 04:56:09;;;;;;;6.93;3.83;;;11.60;1.00;;;;;;4930095;29;20287;-71
2023/10/23 04:58:38;;;;;;;5.80;3.70;;;11.60;1.00;;;;;;4913460;29;20769;-71
2023/10/23 05:01:05;;;;;;;4.93;4.07;;;11.40;1.00;;;;;;4913002;29;20203;-72
2023/10/23 05:03:32;;;;;;;7.40;4.23;;;11.40;1.00;;;;;;4928762;29;20200;-71
2023/10/23 05:05:59;;;;;;;6.40;4.27;;;11.40;1.00;;;;;;4929382;29;20216;-71
2023/10/23 05:08:26;;;;;;;4.93;3.50;;;11.50;1.00;;;;;;4930156;29;20188;-71
2023/10/23 05:10:53;;;;;;;4.37;3.40;;;11.50;1.00;;;;;;4931731;29;20195;-70
2023/10/23 05:13:20;;;;;;;10.63;4.10;;;11.40;1.00;;;;;;4928992;29;20291;-71
2023/10/23 05:15:47;;;;;;;5.70;3.30;;;11.30;1.00;;;;;;4926375;29;20271;-71
2023/10/23 05:18:14;;;;;;;6.53;3.90;;;11.30;1.00;;;;;;4933273;29;20207;-72
2023/10/23 05:20:41;;;;;;;6.00;4.27;;;11.20;1.00;;;;;;4912274;29;20218;-70
2023/10/23 05:23:07;;;;;;;4.27;3.40;;;11.20;1.00;;;;;;4932066;29;20545;-70
2023/10/23 05:25:36;;;;;;;10.40;4.00;;;11.30;1.00;;;;;;4926361;29;20208;-70
2023/10/23 05:28:03;;;;;;;4.70;3.70;;;11.30;1.00;;;;;;4934440;29;20206;-70
2023/10/23 05:30:30;;;;;;;6.90;3.70;;;11.30;1.00;;;;;;4934347;29;20191;-71
2023/10/23 05:32:57;;;;;;;7.77;3.67;;;11.30;1.00;;;;;;4917736;29;20219;-72
2023/10/23 05:35:24;;;;;;;7.10;3.60;;;11.40;1.00;;;;;;4934561;29;20262;-73
2023/10/23 05:37:51;;;;;;;6.33;4.40;;;11.30;1.00;;;;;;4933802;29;20211;-71
2023/10/23 05:40:18;;;;;;;8.40;4.43;;;11.30;1.00;;;;;;4931177;29;20287;-71
2023/10/23 05:42:45;;;;;;;7.90;4.03;;;11.30;1.00;;;;;;4934460;29;20695;-73
2023/10/23 05:45:12;;;;;;;4.93;3.97;;;11.40;1.00;;;;;;4915760;29;20231;-73
2023/10/23 05:47:39;;;;;;;7.63;4.30;;;11.40;1.00;;;;;;4934978;29;20198;-74
2023/10/23 05:50:07;;;;;;;6.50;3.93;;;11.50;1.00;;;;;;4935570;29;20184;-74
2023/10/23 05:52:34;;;;;;;7.50;4.40;;;11.50;1.00;;;;;;4934869;29;20196;-73
2023/10/23 05:55:04;;;;;;;10.83;3.90;;;11.50;1.00;;;;;;4937522;29;20196;-75
2023/10/23 05:57:31;;;;;;;5.23;3.57;;;11.40;1.00;;;;;;4935892;29;20517;-75
2023/10/23 05:59:59;;;;;;;10.40;3.87;;;11.50;1.00;;;;;;4941099;29;20274;-79
2023/10/23 06:02:26;;;;;;;13.23;4.23;;;11.50;1.00;;;;;;4924370;29;20210;-75
2023/10/23 06:04:53;;;;;;;8.40;4.03;;;11.40;1.00;;;;;;4935356;29;20196;-74
2023/10/23 06:07:20;;;;;;;4.40;3.40;;;11.30;1.00;;;;;;4917711;29;20545;-74
2023/10/23 06:09:47;;;;;;;7.77;4.20;;;11.20;1.00;;;;;;4935142;29;20215;-74
2023/10/23 06:12:14;;;;;;;10.27;4.73;;;11.10;1.00;;;;;;4935001;29;20640;-74
2023/10/23 06:14:41;;;;;;;9.77;4.93;;;11.00;1.00;;;;;;4937262;29;20196;-74
2023/10/23 06:17:08;;;;;;;7.63;5.20;;;10.90;1.00;;;;;;4920452;29;20700;-73
2023/10/23 06:19:36;;;;;;;8.10;5.27;;;10.90;1.00;;;;;;4918158;29;20234;-74
2023/10/23 06:22:04;;;;;;;9.20;5.43;;;10.90;1.00;;;;;;4917900;29;20238;-74
2023/10/23 06:24:31;;;;;;;7.53;4.40;;;10.90;1.00;;;;;;4915207;29;20785;-73
2023/10/23 06:26:58;;;;;;;6.50;4.90;;;10.90;1.00;;;;;;4935256;29;20230;-73
2023/10/23 06:29:25;;;;;;;7.30;4.50;;;11.00;1.00;;;;;;4933603;29;20224;-74
2023/10/23 06:31:54;;;;;;;6.70;4.80;;;11.00;1.00;;;;;;4949786;29;20231;-74
2023/10/23 06:34:21;;;;;;;5.50;4.63;;;11.20;1.00;;;;;;4948497;28;20196;-79
2023/10/23 06:36:48;;;;;;;8.17;4.40;;;11.20;1.00;;;;;;4922426;29;20200;-77
2023/10/23 06:39:16;;;;;;;7.43;4.50;;;11.20;1.00;;;;;;4937336;29;20239;-77
2023/10/23 06:41:43;;;;;;;6.37;4.30;;;11.10;1.00;;;;;;4933069;29;20212;-77
2023/10/23 06:44:10;;;;;;;10.03;4.47;;;11.10;1.00;;;;;;4941066;29;20279;-76
2023/10/23 06:46:37;;;;;;;6.70;4.90;;;11.20;1.00;;;;;;4940581;29;20227;-75
2023/10/23 06:49:04;;;;;;;7.87;5.27;;;11.40;1.00;;;;;;4934701;29;20204;-76
2023/10/23 06:51:31;;;;;;;8.30;4.90;;;11.50;1.00;;;;;;4937464;29;20644;-77
2023/10/23 06:53:58;;;;;;;5.90;4.43;;;11.70;1.00;;;;;;4935559;29;20548;-75
2023/10/23 06:56:25;;;;;;;8.17;5.73;;;11.80;1.00;;;;;;4916766;29;20200;-74
2023/10/23 06:58:52;;;;;;;6.07;4.80;;;12.10;1.00;;;;;;4915222;29;20506;-74
2023/10/23 07:01:22;;;;;;;10.67;5.97;;;12.20;99.90;;;;;;4923883;29;20202;-73
2023/10/23 07:04:03;;;;;;;7.67;5.13;;;12.20;99.90;;;;;;4930362;29;20210;-73
2023/10/23 07:06:31;;;;;;;8.10;4.93;;;12.30;99.90;;;;;;4934455;29;20227;-72
2023/10/23 07:08:59;;;;;;;6.87;4.53;;;12.30;99.90;;;;;;4934016;29;20199;-73
2023/10/23 07:11:26;;;;;;;7.73;4.10;;;12.30;99.90;;;;;;4933156;29;20204;-73
2023/10/23 07:13:53;;;;;;;11.20;4.77;;;12.20;99.90;;;;;;4915797;29;20283;-71
2023/10/23 07:16:20;;;;;;;6.40;4.87;;;12.20;99.90;;;;;;4933597;29;20204;-73
2023/10/23 07:18:47;;;;;;;7.10;4.43;;;12.30;99.90;;;;;;4941773;29;20286;-78
2023/10/23 07:21:14;;;;;;;7.00;4.95;;;12.30;99.90;;;;;;4934290;29;20203;-75
2023/10/23 07:23:42;;;;;;;5.95;4.93;;;12.40;99.90;;;;;;4920942;29;20220;-74
2023/10/23 07:26:14;;;;;;;9.97;4.90;;;12.40;99.90;;;;;;4914255;29;20207;-67
2023/10/23 07:28:42;;;;;;;12.30;4.82;;;12.50;99.90;;;;;;4912714;29;20192;-67
2023/10/23 07:31:10;;;;;;;8.07;5.00;;;12.60;99.90;;;;;;4914324;29;20204;-68
2023/10/23 07:33:37;;;;;;;12.10;5.73;;;12.60;99.90;;;;;;4930719;29;20255;-67
2023/10/23 07:36:06;;;;;;;7.33;5.17;;;12.70;99.90;;;;;;4933294;29;20743;-67
2023/10/23 07:38:34;;;;;;;8.23;5.70;;;12.70;99.90;;;;;;4933454;29;20447;-65
2023/10/23 07:41:02;;;;;;;11.73;5.70;;;12.70;99.90;;;;;;4915513;29;20688;-65
2023/10/23 07:43:29;;;;;;;10.60;5.83;;;12.70;99.90;;;;;;4911246;29;20200;-65
2023/10/23 07:45:57;;;;;;;10.57;6.35;;;12.80;99.90;;;;;;4929856;29;20756;-65
2023/10/23 07:48:27;;;;;;;10.55;5.97;;;12.90;99.90;;;;;;4930632;29;20881;-65
2023/10/23 07:50:57;;;;;;;15.20;5.88;;;13.00;99.90;;;;;;4929840;29;20203;-66
2023/10/23 07:53:25;;;;;;;10.95;5.50;;;13.10;99.90;;;;;;4929429;29;20195;-65
2023/10/23 07:55:53;;;;;;;10.93;5.57;;;13.20;99.90;;;;;;4931281;29;20196;-65
2023/10/23 07:58:20;;;;;;;10.98;5.47;;;13.30;99.90;;;;;;4899558;29;20264;-66
2023/10/23 08:00:47;;;;;;;7.97;5.22;;;13.40;99.90;;;;;;4893673;29;20742;-65
2023/10/23 08:03:14;;;;;;;9.65;6.05;;;13.50;99.90;;;;;;4925475;29;20211;-65
2023/10/23 08:05:41;;;;;;;7.07;4.65;;;13.70;99.90;;;;;;4913270;29;20195;-65
2023/10/23 08:08:08;;;;;;;5.32;4.18;;;13.70;99.90;;;;;;4930721;29;20771;-65
2023/10/23 08:10:35;;;;;;;7.28;5.05;;;13.80;99.90;;;;;;4928045;29;20196;-66
2023/10/23 08:13:02;;;;;;;6.15;4.95;;;13.80;99.90;;;;;;4914217;29;20716;-66
2023/10/23 08:15:29;;;;;;;7.78;5.10;;;13.90;99.90;;;;;;4920858;29;20229;-66
2023/10/23 08:17:56;;;;;;;7.30;4.88;;;14.00;99.90;;;;;;4934141;29;20195;-66
2023/10/23 08:20:23;;;;;;;5.00;3.80;;;14.10;99.90;;;;;;4931967;29;20384;-66
2023/10/23 08:22:50;;;;;;;7.90;3.65;;;14.00;99.90;;;;;;4927569;29;20217;-66
2023/10/23 08:25:17;;;;;;;5.47;4.28;;;14.10;99.90;;;;;;4933961;29;20539;-65
2023/10/23 08:27:44;;;;;;;6.20;3.55;;;14.40;99.90;;;;;;4928870;29;20215;-66
2023/10/23 08:30:12;;;;;;;6.53;3.25;;;14.50;99.90;;;;;;4934313;29;20204;-66
2023/10/23 08:32:39;;;;;;;4.97;3.33;;;14.60;99.90;;;;;;4907580;29;20208;-66
2023/10/23 08:35:19;;;;;;;6.97;3.85;;;14.60;99.90;;;;;;4930980;29;20199;-66
2023/10/23 08:37:46;;;;;;;11.07;3.70;;;14.50;99.90;;;;;;4930378;29;20641;-66
2023/10/23 08:40:13;;;;;;;4.43;3.53;;;14.80;99.90;;;;;;4912376;29;20210;-66
2023/10/23 08:42:40;;;;;;;9.60;4.03;;;14.80;99.90;;;;;;4933465;29;20199;-66
2023/10/23 08:45:07;;;;;;;3.58;3.10;;;15.00;99.90;;;;;;4936741;29;20236;-66
2023/10/23 08:47:35;;;;;;;4.68;3.17;;;15.60;99.90;;;;;;4943236;29;20728;-66
2023/10/23 08:50:03;;;;;;;7.97;3.50;;;16.40;99.90;;;;;;4914519;29;20554;-66
2023/10/23 08:52:36;;;;;;;6.03;3.33;;;18.30;99.90;;;;;;4927006;29;20206;-66
2023/10/23 08:55:06;;;;;;;4.43;3.10;;;20.20;99.90;;;;;;4915420;29;20543;-68
2023/10/23 08:57:36;;;;;;;3.67;2.90;;;22.00;99.90;;;;;;4917020;29;20618;-69
2023/10/23 09:00:03;;;;;;;8.98;3.53;;;23.70;99.90;;;;;;4929447;29;20209;-64
2023/10/23 09:02:31;;;;;;;3.35;3.05;;;23.80;99.90;;;;;;4940202;29;20203;-66
2023/10/23 09:04:58;;;;;;;5.53;3.25;;;25.70;99.90;;;;;;4916580;29;20203;-65
2023/10/23 09:07:25;;;;;;;4.68;3.40;;;25.80;99.90;;;;;;4935099;29;20582;-66
2023/10/23 09:09:52;;;;;;;5.15;3.30;;;24.50;99.90;;;;;;4939581;29;20227;-66
2023/10/23 09:12:33;;;;;;;5.30;3.28;;;22.80;99.90;;;;;;4935928;29;20553;-66
2023/10/23 09:15:14;;;;;;;4.00;2.95;;;23.40;99.90;;;;;;4934066;29;20679;-65
2023/10/23 09:17:41;;;;;;;3.75;3.35;;;24.40;99.90;;;;;;4943539;29;20196;-66
2023/10/23 09:20:26;;;;;;;4.97;3.38;;;24.40;99.90;;;;;;4937004;29;20711;-66
2023/10/23 09:22:55;;;;;;;4.57;3.30;;;24.40;99.90;;;;;;4919217;29;20218;-69
2023/10/23 09:25:23;;;;;;;4.28;3.05;;;23.20;99.90;;;;;;4933401;29;20192;-65
2023/10/23 09:27:51;;;;;;;6.50;3.40;;;24.70;99.90;;;;;;4933761;29;20230;-67
2023/10/23 09:30:22;;;;;;;6.00;3.60;;;22.60;99.90;;;;;;4928763;29;20199;-67
2023/10/23 09:32:51;;;;;;;4.22;3.65;;;21.80;99.90;;;;;;4931464;29;20258;-67
2023/10/23 09:35:18;;;;;;;4.80;3.97;;;21.20;99.90;;;;;;4930657;29;20192;-67
2023/10/23 09:37:45;;;;;;;5.60;3.50;;;21.90;99.90;;;;;;4932808;29;20731;-66
2023/10/23 09:40:13;;;;;;;4.75;4.00;;;23.30;99.90;;;;;;4915686;29;20278;-65
2023/10/23 09:42:40;;;;;;;4.57;4.10;;;21.10;99.90;;;;;;4911693;29;20206;-67
2023/10/23 09:45:08;;;;;;;4.85;3.90;;;20.20;99.90;;;;;;4935399;29;20250;-66
2023/10/23 09:47:36;;;;;;;6.88;4.00;;;19.40;99.90;;;;;;4931474;29;20231;-66
2023/10/23 09:50:03;;;;;;;3.83;3.47;;;19.40;99.90;;;;;;4933265;29;20187;-66
2023/10/23 09:52:36;;;;;;;4.60;3.72;;;21.50;99.90;;;;;;4915186;29;20307;-67
2023/10/23 09:55:04;;;;;;;4.03;3.50;;;24.20;99.90;;;;;;4932559;29;20267;-66
2023/10/23 09:57:36;;;;;;;3.85;3.42;;;26.10;99.90;;;;;;4931373;29;20291;-67
2023/10/23 10:00:15;;;;;;;4.18;3.50;;;27.30;99.90;;;;;;4909825;29;20557;-66
2023/10/23 10:02:48;;;;;;;3.75;3.42;;;27.50;99.90;;;;;;4915111;29;20231;-66
2023/10/23 10:05:23;;;;;;;3.67;3.38;;;25.90;99.90;;;;;;4913336;29;20657;-66
2023/10/23 10:08:03;;;;;;;5.35;3.50;;;22.50;99.90;;;;;;4931456;29;20325;-66
2023/10/23 10:10:32;;;;;;;5.05;3.97;;;19.40;99.90;;;;;;4931525;29;20191;-66
2023/10/23 10:13:01;;;;;;;5.38;3.67;;;21.40;99.90;;;;;;4933512;29;20211;-66
2023/10/23 10:15:31;;;;;;;4.80;4.00;;;23.50;99.90;;;;;;4933648;29;20188;-66
2023/10/23 10:17:58;;;;;;;5.45;3.63;;;23.50;99.90;;;;;;4931350;29;20567;-67
2023/10/23 10:20:26;;;;;;;6.32;3.85;;;22.80;99.90;;;;;;4936094;29;20211;-67
2023/10/23 10:22:59;;;;;;;4.38;4.00;;;23.80;99.90;;;;;;4916749;29;20676;-66
2023/10/23 10:25:27;;;;;;;5.95;4.15;;;24.10;99.90;;;;;;4928805;29;20199;-66
2023/10/23 10:27:58;;;;;;;7.18;3.92;;;24.90;99.90;;;;;;4929274;29;20318;-66
2023/10/23 10:30:40;;;;;;;3.83;3.53;;;23.70;99.90;;;;;;4927702;29;20622;-66
2023/10/23 10:33:15;;;;;;;3.70;3.28;;;23.50;99.90;;;;;;4931335;29;20535;-67
2023/10/23 10:36:05;;;;;;;6.35;3.92;;;23.90;99.90;;;;;;4914532;29;20661;-70
2023/10/23 10:38:34;;;;;;;8.10;4.07;;;23.40;99.90;;;;;;4914190;29;20271;-67
2023/10/23 10:41:14;;;;;;;5.55;4.20;;;21.60;99.90;;;;;;4929971;29;20203;-66
2023/10/23 10:43:41;;;;;;;4.22;3.67;;;20.70;99.90;;;;;;4914998;29;20191;-69
2023/10/23 10:46:23;;;;;;;4.63;4.05;;;19.60;99.90;;;;;;4929771;29;21131;-67
2023/10/23 10:48:54;;;;;;;5.63;3.97;;;21.00;99.90;;;;;;4932770;29;20199;-70
2023/10/23 10:51:26;;;;;;;4.95;4.25;;;21.90;99.90;;;;;;4928798;29;20199;-67
2023/10/23 10:54:03;;;;;;;4.25;3.78;;;20.20;99.90;;;;;;4933657;29;20679;-68
2023/10/23 10:56:30;;;;;;;4.75;3.88;;;20.30;99.90;;;;;;4932274;29;20199;-68
2023/10/23 10:58:59;;;;;;;5.13;3.75;;;21.80;99.90;;;;;;4931133;29;20233;-68
2023/10/23 11:01:26;;;;;;;3.88;3.58;;;21.10;99.90;;;;;;4908888;29;20260;-68
2023/10/23 11:03:53;;;;;;;4.35;3.95;;;21.00;99.90;;;;;;4932216;29;20204;-66
2023/10/23 11:06:21;;;;;;;9.57;5.13;;;20.80;99.90;;;;;;4916305;29;20210;-67
2023/10/23 11:08:48;;;;;;;4.03;3.72;;;20.80;99.90;;;;;;4918319;29;20191;-67
2023/10/23 11:11:15;;;;;;;5.10;3.72;;;20.40;99.90;;;;;;4913292;29;20195;-67
2023/10/23 11:13:43;;;;;;;3.83;3.45;;;20.90;99.90;;;;;;4912654;29;20255;-67
2023/10/23 11:16:13;;;;;;;3.72;3.42;;;20.50;99.90;;;;;;4931947;29;20263;-67
2023/10/23 11:18:40;;;;;;;4.35;3.90;;;19.80;99.90;;;;;;4930450;29;20614;-67
2023/10/23 11:21:09;;;;;;;5.70;3.80;;;19.60;99.90;;;;;;4931376;29;20530;-67
2023/10/23 11:23:36;;;;;;;3.75;3.38;;;19.50;99.90;;;;;;4928093;29;20440;-67
2023/10/23 11:26:03;;;;;;;3.05;2.85;;;19.50;99.90;;;;;;4914972;29;20639;-67
2023/10/23 11:28:30;;;;;;;4.53;3.33;;;19.50;99.90;;;;;;4927269;29;20214;-67
2023/10/23 11:31:01;;;;;;;3.92;3.42;;;19.60;99.90;;;;;;4897835;29;20212;-67
2023/10/23 11:33:29;;;;;;;5.15;3.33;;;19.50;99.90;;;;;;4915017;29;20199;-69
2023/10/23 11:35:56;;;;;;;4.53;3.60;;;19.60;99.90;;;;;;4913492;29;20603;-67
2023/10/23 11:38:25;;;;;;;4.07;3.67;;;19.30;99.90;;;;;;4913048;29;20760;-68
2023/10/23 11:40:55;;;;;;;4.47;4.07;;;19.30;99.90;;;;;;4918724;29;20196;-68
2023/10/23 11:43:22;;;;;;;6.07;4.43;;;19.40;99.90;;;;;;4914852;29;20211;-66
2023/10/23 11:45:49;;;;;;;5.57;3.90;;;18.90;99.90;;;;;;4925438;29;20239;-68
2023/10/23 11:48:17;;;;;;;5.03;3.97;;;18.80;99.90;;;;;;4928099;29;20223;-68
2023/10/23 11:50:45;;;;;;;5.97;4.35;;;18.90;99.90;;;;;;4928345;29;20568;-68
2023/10/23 11:53:16;;;;;;;4.95;4.47;;;19.20;99.90;;;;;;4905264;29;20713;-68
2023/10/23 11:55:45;;;;;;;6.80;4.25;;;19.40;99.90;;;;;;4931683;29;20215;-68
2023/10/23 11:58:12;;;;;;;4.72;3.78;;;18.90;99.90;;;;;;4929614;29;20203;-68
2023/10/23 12:00:40;;;;;;;6.47;4.00;;;18.50;99.90;;;;;;4932043;29;20291;-67
2023/10/23 12:03:07;;;;;;;7.13;4.78;;;18.40;99.90;;;;;;4930599;29;20200;-68
2023/10/23 12:05:34;;;;;;;4.15;3.75;;;18.30;99.90;;;;;;4934040;29;20227;-68
2023/10/23 12:08:02;;;;;;;4.35;3.80;;;18.80;99.90;;;;;;4927329;29;20700;-70
2023/10/23 12:10:29;;;;;;;4.18;3.78;;;19.00;99.90;;;;;;4914214;29;20203;-68
2023/10/23 12:12:56;;;;;;;4.68;4.22;;;18.80;99.90;;;;;;4926083;29;20212;-68
2023/10/23 12:15:23;;;;;;;7.25;3.78;;;18.70;99.90;;;;;;4930775;29;20211;-65
2023/10/23 12:17:51;;;;;;;6.75;4.60;;;18.40;99.90;;;;;;4934934;29;20207;-66
2023/10/23 12:20:21;;;;;;;6.45;5.05;;;17.90;99.90;;;;;;4928697;29;20207;-68
2023/10/23 12:22:50;;;;;;;6.15;4.70;;;17.60;99.90;;;;;;4919903;29;20210;-66
2023/10/23 12:25:17;;;;;;;5.78;4.32;;;17.70;99.90;;;;;;4895951;29;20204;-66
2023/10/23 12:27:44;;;;;;;7.07;4.20;;;17.70;99.90;;;;;;4935922;29;20208;-65
2023/10/23 12:30:12;;;;;;;5.88;4.63;;;17.70;99.90;;;;;;4931325;29;20222;-66
2023/10/23 12:32:49;;;;;;;7.20;3.80;;;17.30;99.90;;;;;;4912258;29;20212;-65
2023/10/23 12:35:36;;;;;;;5.25;4.18;;;17.10;99.90;;;;;;4926330;29;20191;-68
2023/10/23 12:38:04;;;;;;;5.47;4.57;;;17.20;99.90;;;;;;4929724;29;20199;-76
2023/10/23 12:40:32;;;;;;;6.10;4.18;;;17.30;99.90;;;;;;4898139;29;20637;-68
2023/10/23 12:43:03;;;;;;;4.57;4.10;;;17.40;99.90;;;;;;4924779;29;20669;-68
2023/10/23 12:45:37;;;;;;;9.50;4.32;;;17.50;99.90;;;;;;4909805;29;20262;-70
2023/10/23 12:48:04;;;;;;;6.82;4.43;;;17.20;99.90;;;;;;4931542;29;20577;-68
2023/10/23 12:50:32;;;;;;;4.50;4.07;;;17.10;99.90;;;;;;4925111;29;20294;-68
2023/10/23 12:52:59;;;;;;;4.82;4.30;;;16.90;99.90;;;;;;4908167;29;20650;-67
2023/10/23 12:55:28;;;;;;;6.50;3.83;;;17.00;99.90;;;;;;4922148;28;20199;-67
2023/10/23 12:57:55;;;;;;;10.85;4.47;;;17.10;99.90;;;;;;4909301;29;20736;-66